sensor_id;sensor_type;location;lat;lon;timestamp;temperature;humidity
20998;DHT22;10657;51.276;6.390;2023-04-03T00:02:20;5.10;99.90
20998;DHT22;10657;51.276;6.390;2023-04-03T00:04:46;5.10;99.90
20998;DHT22;10657;51.276;6.390;2023-04-03T00:07:13;5.10;99.90
20998;DHT22;10657;51.276;6.390;2023-04-03T00:09:41;5.00;99.90
20998;DHT22;10657;51.276;6.390;2023-04-03T00:12:07;4.70;99.90
20998;DHT22;10657;51.276;6.390;2023-04-03T00:14:34;4.70;99.90
20998;DHT22;10657;51.276;6.390;2023-04-03T00:17:00;4.60;99.90
20998;DHT22;10657;51.276;6.390;2023-04-03T00:19:27;4.60;99.90
20998;DHT22;10657;51.276;6.390;2023-04-03T00:21:54;4.40;99.90
20998;DHT22;10657;51.276;6.390;2023-04-03T00:24:20;4.40;99.90
20998;DHT22;10657;51.276;6.390;2023-04-03T00:26:47;4.30;99.90
20998;DHT22;10657;51.276;6.390;2023-04-03T00:29:14;4.50;99.90
20998;DHT22;10657;51.276;6.390;2023-04-03T00:31:40;4.50;99.90
20998;DHT22;10657;51.276;6.390;2023-04-03T00:34:07;4.50;99.90
20998;DHT22;10657;51.276;6.390;2023-04-03T00:36:34;4.30;99.90
20998;DHT22;10657;51.276;6.390;2023-04-03T00:39:00;4.30;99.90
20998;DHT22;10657;51.276;6.390;2023-04-03T00:41:27;4.30;99.90
20998;DHT22;10657;51.276;6.390;2023-04-03T00:43:54;4.40;99.90
20998;DHT22;10657;51.276;6.390;2023-04-03T00:46:21;4.50;99.90
20998;DHT22;10657;51.276;6.390;2023-04-03T00:48:48;4.40;99.90
20998;DHT22;10657;51.276;6.390;2023-04-03T00:51:23;4.40;99.90
20998;DHT22;10657;51.276;6.390;2023-04-03T00:53:55;4.10;99.90
20998;DHT22;10657;51.276;6.390;2023-04-03T00:56:25;4.30;99.90
20998;DHT22;10657;51.276;6.390;2023-04-03T00:59:20;4.10;99.90
20998;DHT22;10657;51.276;6.390;2023-04-03T01:01:49;4.20;99.90
20998;DHT22;10657;51.276;6.390;2023-04-03T01:04:28;4.10;99.90
20998;DHT22;10657;51.276;6.390;2023-04-03T01:06:58;4.30;99.90
20998;DHT22;10657;51.276;6.390;2023-04-03T01:09:28;4.30;99.90
20998;DHT22;10657;51.276;6.390;2023-04-03T01:12:14;4.40;99.90
20998;DHT22;10657;51.276;6.390;2023-04-03T01:14:56;4.20;99.90
20998;DHT22;10657;51.276;6.390;2023-04-03T01:17:43;4.20;99.90
20998;DHT22;10657;51.276;6.390;2023-04-03T01:25:55;4.30;99.90
20998;DHT22;10657;51.276;6.390;2023-04-03T01:28:28;4.20;99.90
20998;DHT22;10657;51.276;6.390;2023-04-03T01:31:29;4.30;99.90
20998;DHT22;10657;51.276;6.390;2023-04-03T01:33:57;4.10;99.90
20998;DHT22;10657;51.276;6.390;2023-04-03T01:36:26;4.00;99.90
20998;DHT22;10657;51.276;6.390;2023-04-03T01:38:55;3.80;99.90
20998;DHT22;10657;51.276;6.390;2023-04-03T01:41:22;3.70;99.90
20998;DHT22;10657;51.276;6.390;2023-04-03T01:43:49;3.70;99.90
20998;DHT22;10657;51.276;6.390;2023-04-03T01:46:16;3.80;99.90
20998;DHT22;10657;51.276;6.390;2023-04-03T01:48:43;3.80;99.90
20998;DHT22;10657;51.276;6.390;2023-04-03T01:51:10;3.90;99.90
20998;DHT22;10657;51.276;6.390;2023-04-03T01:53:37;4.00;99.90
20998;DHT22;10657;51.276;6.390;2023-04-03T01:56:04;4.00;99.90
20998;DHT22;10657;51.276;6.390;2023-04-03T01:58:31;4.00;99.90
20998;DHT22;10657;51.276;6.390;2023-04-03T02:00:57;3.80;99.90
20998;DHT22;10657;51.276;6.390;2023-04-03T02:03:24;3.70;99.90
20998;DHT22;10657;51.276;6.390;2023-04-03T02:05:51;3.70;99.90
20998;DHT22;10657;51.276;6.390;2023-04-03T02:08:18;3.70;99.90
20998;DHT22;10657;51.276;6.390;2023-04-03T02:10:47;3.70;99.90
20998;DHT22;10657;51.276;6.390;2023-04-03T02:13:15;3.70;99.90
20998;DHT22;10657;51.276;6.390;2023-04-03T02:15:42;3.60;99.90
20998;DHT22;10657;51.276;6.390;2023-04-03T02:18:09;3.60;99.90
20998;DHT22;10657;51.276;6.390;2023-04-03T02:20:35;3.60;99.90
20998;DHT22;10657;51.276;6.390;2023-04-03T02:23:03;3.60;99.90
20998;DHT22;10657;51.276;6.390;2023-04-03T02:25:33;3.70;99.90
20998;DHT22;10657;51.276;6.390;2023-04-03T02:28:02;3.70;99.90
20998;DHT22;10657;51.276;6.390;2023-04-03T02:30:28;3.60;99.90
20998;DHT22;10657;51.276;6.390;2023-04-03T02:32:55;3.80;99.90
20998;DHT22;10657;51.276;6.390;2023-04-03T02:35:22;3.80;99.90
20998;DHT22;10657;51.276;6.390;2023-04-03T02:37:49;3.80;99.90
20998;DHT22;10657;51.276;6.390;2023-04-03T02:40:15;4.00;99.90
20998;DHT22;10657;51.276;6.390;2023-04-03T02:42:42;4.30;99.90
20998;DHT22;10657;51.276;6.390;2023-04-03T02:45:09;4.20;99.90
20998;DHT22;10657;51.276;6.390;2023-04-03T02:47:36;4.30;99.90
20998;DHT22;10657;51.276;6.390;2023-04-03T02:50:03;4.70;99.90
20998;DHT22;10657;51.276;6.390;2023-04-03T02:52:29;5.00;99.90
20998;DHT22;10657;51.276;6.390;2023-04-03T02:54:56;4.90;99.90
20998;DHT22;10657;51.276;6.390;2023-04-03T02:57:22;5.10;99.90
20998;DHT22;10657;51.276;6.390;2023-04-03T02:59:49;5.00;99.90
20998;DHT22;10657;51.276;6.390;2023-04-03T03:02:16;5.20;99.90
20998;DHT22;10657;51.276;6.390;2023-04-03T03:04:42;5.20;99.90
20998;DHT22;10657;51.276;6.390;2023-04-03T03:07:09;5.20;99.90
20998;DHT22;10657;51.276;6.390;2023-04-03T03:09:36;5.40;99.90
20998;DHT22;10657;51.276;6.390;2023-04-03T03:12:03;5.50;99.90
20998;DHT22;10657;51.276;6.390;2023-04-03T03:14:29;5.40;99.90
20998;DHT22;10657;51.276;6.390;2023-04-03T03:16:56;5.30;99.90
20998;DHT22;10657;51.276;6.390;2023-04-03T03:19:23;4.90;99.90
20998;DHT22;10657;51.276;6.390;2023-04-03T03:21:50;4.90;99.90
20998;DHT22;10657;51.276;6.390;2023-04-03T03:24:17;5.00;99.90
20998;DHT22;10657;51.276;6.390;2023-04-03T03:26:44;5.30;99.90
20998;DHT22;10657;51.276;6.390;2023-04-03T03:29:11;5.30;99.90
20998;DHT22;10657;51.276;6.390;2023-04-03T03:31:37;5.30;99.90
20998;DHT22;10657;51.276;6.390;2023-04-03T03:34:04;5.20;99.90
20998;DHT22;10657;51.276;6.390;2023-04-03T03:36:31;5.00;99.90
20998;DHT22;10657;51.276;6.390;2023-04-03T03:38:58;5.40;99.90
20998;DHT22;10657;51.276;6.390;2023-04-03T03:41:24;5.60;99.90
20998;DHT22;10657;51.276;6.390;2023-04-03T03:43:51;5.80;99.90
20998;DHT22;10657;51.276;6.390;2023-04-03T03:46:18;6.10;99.90
20998;DHT22;10657;51.276;6.390;2023-04-03T03:48:44;5.70;99.90
20998;DHT22;10657;51.276;6.390;2023-04-03T03:51:11;5.90;99.90
20998;DHT22;10657;51.276;6.390;2023-04-03T03:53:38;5.50;99.90
20998;DHT22;10657;51.276;6.390;2023-04-03T03:56:05;5.40;99.90
20998;DHT22;10657;51.276;6.390;2023-04-03T03:58:32;5.30;99.90
20998;DHT22;10657;51.276;6.390;2023-04-03T04:01:05;5.30;99.90
20998;DHT22;10657;51.276;6.390;2023-04-03T04:03:33;5.40;99.90
20998;DHT22;10657;51.276;6.390;2023-04-03T04:06:00;5.30;99.90
20998;DHT22;10657;51.276;6.390;2023-04-03T04:08:26;5.30;99.90
20998;DHT22;10657;51.276;6.390;2023-04-03T04:10:53;5.50;99.90
20998;DHT22;10657;51.276;6.390;2023-04-03T04:13:20;5.40;99.90
20998;DHT22;10657;51.276;6.390;2023-04-03T04:15:46;5.30;99.90
20998;DHT22;10657;51.276;6.390;2023-04-03T04:18:13;4.60;99.90
20998;DHT22;10657;51.276;6.390;2023-04-03T04:20:40;4.80;99.90
20998;DHT22;10657;51.276;6.390;2023-04-03T04:23:06;5.00;99.90
20998;DHT22;10657;51.276;6.390;2023-04-03T04:25:33;5.30;99.90
20998;DHT22;10657;51.276;6.390;2023-04-03T04:28:00;5.00;99.90
20998;DHT22;10657;51.276;6.390;2023-04-03T04:30:28;4.90;99.90
20998;DHT22;10657;51.276;6.390;2023-04-03T04:32:55;4.40;99.90
20998;DHT22;10657;51.276;6.390;2023-04-03T04:35:21;4.30;99.90
20998;DHT22;10657;51.276;6.390;2023-04-03T04:37:48;4.20;99.90
20998;DHT22;10657;51.276;6.390;2023-04-03T04:40:15;4.20;99.90
20998;DHT22;10657;51.276;6.390;2023-04-03T04:42:41;4.10;99.90
20998;DHT22;10657;51.276;6.390;2023-04-03T04:45:08;3.90;99.90
20998;DHT22;10657;51.276;6.390;2023-04-03T04:47:35;3.80;99.90
20998;DHT22;10657;51.276;6.390;2023-04-03T04:50:02;3.80;99.90
20998;DHT22;10657;51.276;6.390;2023-04-03T04:52:29;3.80;99.90
20998;DHT22;10657;51.276;6.390;2023-04-03T04:54:56;3.80;99.90
20998;DHT22;10657;51.276;6.390;2023-04-03T04:57:22;3.70;99.90
20998;DHT22;10657;51.276;6.390;2023-04-03T04:59:49;3.70;99.90
20998;DHT22;10657;51.276;6.390;2023-04-03T05:02:16;3.50;99.90
20998;DHT22;10657;51.276;6.390;2023-04-03T05:04:43;3.70;99.90
20998;DHT22;10657;51.276;6.390;2023-04-03T05:07:09;3.70;99.90
20998;DHT22;10657;51.276;6.390;2023-04-03T05:09:36;3.80;99.90
20998;DHT22;10657;51.276;6.390;2023-04-03T05:12:03;3.60;99.90
20998;DHT22;10657;51.276;6.390;2023-04-03T05:14:30;3.60;99.90
20998;DHT22;10657;51.276;6.390;2023-04-03T05:16:56;3.70;99.90
20998;DHT22;10657;51.276;6.390;2023-04-03T05:19:24;4.00;99.90
20998;DHT22;10657;51.276;6.390;2023-04-03T05:21:50;3.80;99.90
20998;DHT22;10657;51.276;6.390;2023-04-03T05:24:17;3.90;99.90
20998;DHT22;10657;51.276;6.390;2023-04-03T05:26:44;3.90;99.90
20998;DHT22;10657;51.276;6.390;2023-04-03T05:29:11;3.70;99.90
20998;DHT22;10657;51.276;6.390;2023-04-03T05:31:37;3.70;99.90
20998;DHT22;10657;51.276;6.390;2023-04-03T05:34:05;3.60;99.90
20998;DHT22;10657;51.276;6.390;2023-04-03T05:36:32;3.50;99.90
20998;DHT22;10657;51.276;6.390;2023-04-03T05:38:58;3.40;99.90
20998;DHT22;10657;51.276;6.390;2023-04-03T05:41:25;3.30;99.90
20998;DHT22;10657;51.276;6.390;2023-04-03T05:43:52;3.10;99.90
20998;DHT22;10657;51.276;6.390;2023-04-03T05:46:19;3.40;99.90
20998;DHT22;10657;51.276;6.390;2023-04-03T05:48:47;3.70;99.90
20998;DHT22;10657;51.276;6.390;2023-04-03T05:51:17;4.00;99.90
20998;DHT22;10657;51.276;6.390;2023-04-03T05:53:44;3.70;99.90
20998;DHT22;10657;51.276;6.390;2023-04-03T05:56:11;3.60;99.90
20998;DHT22;10657;51.276;6.390;2023-04-03T05:58:38;4.10;99.90
20998;DHT22;10657;51.276;6.390;2023-04-03T06:01:05;4.10;99.90
20998;DHT22;10657;51.276;6.390;2023-04-03T06:03:32;4.40;99.90
20998;DHT22;10657;51.276;6.390;2023-04-03T06:05:59;4.60;99.90
20998;DHT22;10657;51.276;6.390;2023-04-03T06:08:26;4.50;99.90
20998;DHT22;10657;51.276;6.390;2023-04-03T06:10:52;4.40;99.90
20998;DHT22;10657;51.276;6.390;2023-04-03T06:13:19;4.70;99.90
20998;DHT22;10657;51.276;6.390;2023-04-03T06:15:45;4.80;99.90
20998;DHT22;10657;51.276;6.390;2023-04-03T06:18:13;4.90;99.90
20998;DHT22;10657;51.276;6.390;2023-04-03T06:20:39;4.90;99.90
20998;DHT22;10657;51.276;6.390;2023-04-03T06:23:06;5.00;99.90
20998;DHT22;10657;51.276;6.390;2023-04-03T06:25:34;5.40;99.90
20998;DHT22;10657;51.276;6.390;2023-04-03T06:28:01;5.20;99.90
20998;DHT22;10657;51.276;6.390;2023-04-03T06:30:27;5.50;99.90
20998;DHT22;10657;51.276;6.390;2023-04-03T06:32:54;5.50;99.90
20998;DHT22;10657;51.276;6.390;2023-04-03T06:35:22;5.50;99.90
20998;DHT22;10657;51.276;6.390;2023-04-03T06:37:50;5.40;99.90
20998;DHT22;10657;51.276;6.390;2023-04-03T06:40:22;5.70;99.90
20998;DHT22;10657;51.276;6.390;2023-04-03T06:42:49;5.90;99.90
20998;DHT22;10657;51.276;6.390;2023-04-03T06:45:16;5.80;99.90
20998;DHT22;10657;51.276;6.390;2023-04-03T06:47:43;5.90;99.90
20998;DHT22;10657;51.276;6.390;2023-04-03T06:50:10;5.80;99.90
20998;DHT22;10657;51.276;6.390;2023-04-03T06:52:40;5.70;99.90
20998;DHT22;10657;51.276;6.390;2023-04-03T06:55:08;5.70;99.90
20998;DHT22;10657;51.276;6.390;2023-04-03T06:57:35;6.30;99.90
20998;DHT22;10657;51.276;6.390;2023-04-03T07:00:04;6.30;99.90
20998;DHT22;10657;51.276;6.390;2023-04-03T07:02:31;6.30;99.90
20998;DHT22;10657;51.276;6.390;2023-04-03T07:04:58;6.50;99.90
20998;DHT22;10657;51.276;6.390;2023-04-03T07:07:25;6.40;99.90
20998;DHT22;10657;51.276;6.390;2023-04-03T07:09:52;6.90;99.90
20998;DHT22;10657;51.276;6.390;2023-04-03T07:12:18;7.20;99.90
20998;DHT22;10657;51.276;6.390;2023-04-03T07:14:45;7.30;99.90
20998;DHT22;10657;51.276;6.390;2023-04-03T07:17:12;7.20;99.90
20998;DHT22;10657;51.276;6.390;2023-04-03T07:19:38;7.30;99.90
20998;DHT22;10657;51.276;6.390;2023-04-03T07:22:05;7.80;99.90
20998;DHT22;10657;51.276;6.390;2023-04-03T07:24:32;7.90;99.90
20998;DHT22;10657;51.276;6.390;2023-04-03T07:26:59;7.50;99.90
20998;DHT22;10657;51.276;6.390;2023-04-03T07:29:27;7.30;99.90
20998;DHT22;10657;51.276;6.390;2023-04-03T07:31:53;6.90;99.90
20998;DHT22;10657;51.276;6.390;2023-04-03T07:34:22;6.70;99.90
20998;DHT22;10657;51.276;6.390;2023-04-03T07:36:48;7.30;99.90
20998;DHT22;10657;51.276;6.390;2023-04-03T07:39:15;7.50;99.90
20998;DHT22;10657;51.276;6.390;2023-04-03T07:41:41;7.70;99.90
20998;DHT22;10657;51.276;6.390;2023-04-03T07:44:08;7.70;99.90
20998;DHT22;10657;51.276;6.390;2023-04-03T07:46:36;7.90;99.90
20998;DHT22;10657;51.276;6.390;2023-04-03T07:49:03;7.70;99.90
20998;DHT22;10657;51.276;6.390;2023-04-03T07:51:30;7.80;99.90
20998;DHT22;10657;51.276;6.390;2023-04-03T07:53:57;8.00;99.90
20998;DHT22;10657;51.276;6.390;2023-04-03T07:56:24;7.80;99.90
20998;DHT22;10657;51.276;6.390;2023-04-03T07:58:51;8.20;99.90
20998;DHT22;10657;51.276;6.390;2023-04-03T08:01:18;8.10;99.90
20998;DHT22;10657;51.276;6.390;2023-04-03T08:03:44;8.40;99.90
20998;DHT22;10657;51.276;6.390;2023-04-03T08:06:11;8.20;99.90
20998;DHT22;10657;51.276;6.390;2023-04-03T08:08:43;7.80;99.90
20998;DHT22;10657;51.276;6.390;2023-04-03T08:11:10;8.20;99.90
20998;DHT22;10657;51.276;6.390;2023-04-03T08:13:37;8.20;99.90
20998;DHT22;10657;51.276;6.390;2023-04-03T08:16:09;8.30;99.90
20998;DHT22;10657;51.276;6.390;2023-04-03T08:18:36;8.20;99.90
20998;DHT22;10657;51.276;6.390;2023-04-03T08:21:08;8.30;99.90
20998;DHT22;10657;51.276;6.390;2023-04-03T08:23:35;8.20;99.90
20998;DHT22;10657;51.276;6.390;2023-04-03T08:26:09;8.40;99.90
20998;DHT22;10657;51.276;6.390;2023-04-03T08:28:36;8.30;99.90
20998;DHT22;10657;51.276;6.390;2023-04-03T08:31:05;8.60;99.90
20998;DHT22;10657;51.276;6.390;2023-04-03T08:33:33;8.60;99.90
20998;DHT22;10657;51.276;6.390;2023-04-03T08:36:04;8.70;99.90
20998;DHT22;10657;51.276;6.390;2023-04-03T08:38:31;8.60;99.90
20998;DHT22;10657;51.276;6.390;2023-04-03T08:41:26;8.60;99.90
20998;DHT22;10657;51.276;6.390;2023-04-03T08:49:57;9.00;99.90
20998;DHT22;10657;51.276;6.390;2023-04-03T08:52:39;9.00;99.90
20998;DHT22;10657;51.276;6.390;2023-04-03T08:55:36;9.10;99.90
20998;DHT22;10657;51.276;6.390;2023-04-03T08:58:06;9.30;99.90
20998;DHT22;10657;51.276;6.390;2023-04-03T09:01:06;9.20;99.90
20998;DHT22;10657;51.276;6.390;2023-04-03T09:03:41;9.00;99.90
20998;DHT22;10657;51.276;6.390;2023-04-03T09:06:12;9.00;99.90
20998;DHT22;10657;51.276;6.390;2023-04-03T09:16:56;9.60;99.90
20998;DHT22;10657;51.276;6.390;2023-04-03T09:22:22;9.90;99.90
20998;DHT22;10657;51.276;6.390;2023-04-03T09:24:57;9.70;99.90
20998;DHT22;10657;51.276;6.390;2023-04-03T09:27:25;9.70;99.90
20998;DHT22;10657;51.276;6.390;2023-04-03T09:29:54;9.60;99.90
20998;DHT22;10657;51.276;6.390;2023-04-03T09:32:35;9.50;99.90
20998;DHT22;10657;51.276;6.390;2023-04-03T09:35:27;9.90;99.90
20998;DHT22;10657;51.276;6.390;2023-04-03T09:40:44;10.00;99.90
20998;DHT22;10657;51.276;6.390;2023-04-03T09:45:48;9.90;99.90
20998;DHT22;10657;51.276;6.390;2023-04-03T09:48:19;10.20;99.90
20998;DHT22;10657;51.276;6.390;2023-04-03T09:51:01;10.10;99.90
20998;DHT22;10657;51.276;6.390;2023-04-03T09:53:35;10.20;99.90
20998;DHT22;10657;51.276;6.390;2023-04-03T09:56:26;10.00;99.90
20998;DHT22;10657;51.276;6.390;2023-04-03T10:01:38;10.60;99.90
20998;DHT22;10657;51.276;6.390;2023-04-03T10:04:13;10.40;99.90
20998;DHT22;10657;51.276;6.390;2023-04-03T10:06:52;10.20;99.90
20998;DHT22;10657;51.276;6.390;2023-04-03T10:09:27;10.40;99.90
20998;DHT22;10657;51.276;6.390;2023-04-03T10:12:20;10.50;99.90
20998;DHT22;10657;51.276;6.390;2023-04-03T10:14:59;10.30;99.90
20998;DHT22;10657;51.276;6.390;2023-04-03T10:17:32;10.30;99.90
20998;DHT22;10657;51.276;6.390;2023-04-03T10:25:32;10.40;99.90
20998;DHT22;10657;51.276;6.390;2023-04-03T10:28:17;9.90;99.90
20998;DHT22;10657;51.276;6.390;2023-04-03T10:34:06;10.20;99.90
20998;DHT22;10657;51.276;6.390;2023-04-03T10:37:21;10.40;99.90
20998;DHT22;10657;51.276;6.390;2023-04-03T10:39:43;10.50;99.90
20998;DHT22;10657;51.276;6.390;2023-04-03T10:53:27;10.90;99.90
20998;DHT22;10657;51.276;6.390;2023-04-03T10:56:11;10.80;99.90
20998;DHT22;10657;51.276;6.390;2023-04-03T10:58:43;10.80;99.90
20998;DHT22;10657;51.276;6.390;2023-04-03T11:01:15;10.90;99.90
20998;DHT22;10657;51.276;6.390;2023-04-03T11:03:46;10.80;99.90
20998;DHT22;10657;51.276;6.390;2023-04-03T11:06:15;10.80;99.90
20998;DHT22;10657;51.276;6.390;2023-04-03T11:08:53;10.90;99.90
20998;DHT22;10657;51.276;6.390;2023-04-03T11:11:29;11.00;99.90
20998;DHT22;10657;51.276;6.390;2023-04-03T11:14:03;11.00;99.90
20998;DHT22;10657;51.276;6.390;2023-04-03T11:16:36;11.10;99.90
20998;DHT22;10657;51.276;6.390;2023-04-03T11:19:45;11.00;99.90
20998;DHT22;10657;51.276;6.390;2023-04-03T11:25:18;10.90;99.90
20998;DHT22;10657;51.276;6.390;2023-04-03T11:27:47;11.00;99.90
20998;DHT22;10657;51.276;6.390;2023-04-03T11:30:23;10.80;99.90
20998;DHT22;10657;51.276;6.390;2023-04-03T11:36:12;11.10;99.90
20998;DHT22;10657;51.276;6.390;2023-04-03T11:38:58;11.00;99.90
20998;DHT22;10657;51.276;6.390;2023-04-03T11:41:31;11.00;99.90
20998;DHT22;10657;51.276;6.390;2023-04-03T11:44:05;11.20;99.90
20998;DHT22;10657;51.276;6.390;2023-04-03T11:46:55;11.40;99.90
20998;DHT22;10657;51.276;6.390;2023-04-03T11:58:32;11.70;99.90
20998;DHT22;10657;51.276;6.390;2023-04-03T12:16:24;12.00;99.90
20998;DHT22;10657;51.276;6.390;2023-04-03T12:51:15;12.40;99.90
20998;DHT22;10657;51.276;6.390;2023-04-03T12:53:44;12.80;99.90
20998;DHT22;10657;51.276;6.390;2023-04-03T12:56:30;13.00;99.90
20998;DHT22;10657;51.276;6.390;2023-04-03T12:59:26;13.20;99.90
20998;DHT22;10657;51.276;6.390;2023-04-03T13:02:00;13.40;99.90
20998;DHT22;10657;51.276;6.390;2023-04-03T13:04:28;13.30;99.90
20998;DHT22;10657;51.276;6.390;2023-04-03T13:06:57;13.30;99.90
20998;DHT22;10657;51.276;6.390;2023-04-03T13:09:29;13.60;99.90
20998;DHT22;10657;51.276;6.390;2023-04-03T13:12:12;13.60;99.90
20998;DHT22;10657;51.276;6.390;2023-04-03T13:14:39;13.70;97.60
20998;DHT22;10657;51.276;6.390;2023-04-03T13:17:13;13.40;98.50
20998;DHT22;10657;51.276;6.390;2023-04-03T13:19:41;13.60;99.30
20998;DHT22;10657;51.276;6.390;2023-04-03T13:25:03;13.90;99.90
20998;DHT22;10657;51.276;6.390;2023-04-03T13:27:31;13.70;98.10
20998;DHT22;10657;51.276;6.390;2023-04-03T13:29:59;13.90;98.60
20998;DHT22;10657;51.276;6.390;2023-04-03T13:32:29;13.90;98.40
20998;DHT22;10657;51.276;6.390;2023-04-03T13:34:56;13.80;97.40
20998;DHT22;10657;51.276;6.390;2023-04-03T13:37:34;13.90;97.30
20998;DHT22;10657;51.276;6.390;2023-04-03T13:40:04;13.90;98.20
20998;DHT22;10657;51.276;6.390;2023-04-03T13:42:40;14.00;96.00
20998;DHT22;10657;51.276;6.390;2023-04-03T13:47:43;14.10;97.30
20998;DHT22;10657;51.276;6.390;2023-04-03T13:50:22;13.30;93.90
20998;DHT22;10657;51.276;6.390;2023-04-03T13:53:11;14.00;99.90
20998;DHT22;10657;51.276;6.390;2023-04-03T13:55:57;14.00;93.40
20998;DHT22;10657;51.276;6.390;2023-04-03T13:58:29;14.20;98.20
20998;DHT22;10657;51.276;6.390;2023-04-03T14:01:14;14.40;95.00
20998;DHT22;10657;51.276;6.390;2023-04-03T14:03:51;14.50;96.50
20998;DHT22;10657;51.276;6.390;2023-04-03T14:06:18;14.90;98.60
20998;DHT22;10657;51.276;6.390;2023-04-03T14:08:45;14.90;95.00
20998;DHT22;10657;51.276;6.390;2023-04-03T14:11:28;14.90;96.50
20998;DHT22;10657;51.276;6.390;2023-04-03T14:13:58;14.70;95.60
20998;DHT22;10657;51.276;6.390;2023-04-03T14:16:30;14.80;94.40
20998;DHT22;10657;51.276;6.390;2023-04-03T14:18:58;14.90;96.70
20998;DHT22;10657;51.276;6.390;2023-04-03T14:21:25;14.80;94.20
20998;DHT22;10657;51.276;6.390;2023-04-03T14:23:52;14.60;93.60
20998;DHT22;10657;51.276;6.390;2023-04-03T14:26:21;14.70;95.40
20998;DHT22;10657;51.276;6.390;2023-04-03T14:28:51;14.90;94.30
20998;DHT22;10657;51.276;6.390;2023-04-03T14:31:19;15.20;94.50
20998;DHT22;10657;51.276;6.390;2023-04-03T14:33:46;15.20;95.00
20998;DHT22;10657;51.276;6.390;2023-04-03T14:38:43;14.90;92.10
20998;DHT22;10657;51.276;6.390;2023-04-03T14:41:13;15.10;95.20
20998;DHT22;10657;51.276;6.390;2023-04-03T14:43:44;15.20;94.10
20998;DHT22;10657;51.276;6.390;2023-04-03T14:46:17;14.90;93.40
20998;DHT22;10657;51.276;6.390;2023-04-03T14:48:44;15.00;93.00
20998;DHT22;10657;51.276;6.390;2023-04-03T14:51:12;15.10;93.40
20998;DHT22;10657;51.276;6.390;2023-04-03T14:53:40;14.50;90.70
20998;DHT22;10657;51.276;6.390;2023-04-03T14:56:26;14.80;92.80
20998;DHT22;10657;51.276;6.390;2023-04-03T14:58:58;14.50;91.00
20998;DHT22;10657;51.276;6.390;2023-04-03T15:01:28;14.60;91.40
20998;DHT22;10657;51.276;6.390;2023-04-03T15:03:55;15.00;94.50
20998;DHT22;10657;51.276;6.390;2023-04-03T15:06:22;15.20;90.50
20998;DHT22;10657;51.276;6.390;2023-04-03T15:08:49;15.70;92.80
20998;DHT22;10657;51.276;6.390;2023-04-03T15:11:15;15.50;93.20
20998;DHT22;10657;51.276;6.390;2023-04-03T15:13:42;15.30;92.00
20998;DHT22;10657;51.276;6.390;2023-04-03T15:16:16;15.40;92.90
20998;DHT22;10657;51.276;6.390;2023-04-03T15:18:44;15.70;91.90
20998;DHT22;10657;51.276;6.390;2023-04-03T15:21:11;15.50;92.10
20998;DHT22;10657;51.276;6.390;2023-04-03T15:23:38;15.70;92.40
20998;DHT22;10657;51.276;6.390;2023-04-03T15:26:05;15.20;92.10
20998;DHT22;10657;51.276;6.390;2023-04-03T15:28:39;15.20;91.20
20998;DHT22;10657;51.276;6.390;2023-04-03T15:31:06;15.40;91.90
20998;DHT22;10657;51.276;6.390;2023-04-03T15:33:34;15.30;92.30
20998;DHT22;10657;51.276;6.390;2023-04-03T15:36:02;15.50;91.70
20998;DHT22;10657;51.276;6.390;2023-04-03T15:38:42;15.60;91.40
20998;DHT22;10657;51.276;6.390;2023-04-03T15:41:09;15.80;90.20
20998;DHT22;10657;51.276;6.390;2023-04-03T15:43:35;15.60;90.20
20998;DHT22;10657;51.276;6.390;2023-04-03T15:46:02;15.70;91.50
20998;DHT22;10657;51.276;6.390;2023-04-03T15:48:29;15.80;91.70
20998;DHT22;10657;51.276;6.390;2023-04-03T15:50:56;15.90;89.40
20998;DHT22;10657;51.276;6.390;2023-04-03T15:53:24;16.10;91.80
20998;DHT22;10657;51.276;6.390;2023-04-03T15:55:51;16.20;91.10
20998;DHT22;10657;51.276;6.390;2023-04-03T15:58:18;15.80;90.80
20998;DHT22;10657;51.276;6.390;2023-04-03T16:00:44;15.90;92.50
20998;DHT22;10657;51.276;6.390;2023-04-03T16:03:14;15.70;90.00
20998;DHT22;10657;51.276;6.390;2023-04-03T16:05:42;15.90;89.90
20998;DHT22;10657;51.276;6.390;2023-04-03T16:08:09;15.60;86.90
20998;DHT22;10657;51.276;6.390;2023-04-03T16:10:36;15.50;86.50
20998;DHT22;10657;51.276;6.390;2023-04-03T16:13:03;15.40;91.10
20998;DHT22;10657;51.276;6.390;2023-04-03T16:15:31;15.60;88.90
20998;DHT22;10657;51.276;6.390;2023-04-03T16:17:59;15.10;86.30
20998;DHT22;10657;51.276;6.390;2023-04-03T16:20:26;15.00;89.20
20998;DHT22;10657;51.276;6.390;2023-04-03T16:22:53;15.40;88.80
20998;DHT22;10657;51.276;6.390;2023-04-03T16:25:22;15.30;89.20
20998;DHT22;10657;51.276;6.390;2023-04-03T16:27:48;15.60;89.00
20998;DHT22;10657;51.276;6.390;2023-04-03T16:30:15;15.70;87.90
20998;DHT22;10657;51.276;6.390;2023-04-03T16:32:42;15.70;90.20
20998;DHT22;10657;51.276;6.390;2023-04-03T16:35:10;15.60;89.90
20998;DHT22;10657;51.276;6.390;2023-04-03T16:37:38;15.40;86.10
20998;DHT22;10657;51.276;6.390;2023-04-03T16:40:07;15.20;88.70
20998;DHT22;10657;51.276;6.390;2023-04-03T16:42:33;15.00;89.30
20998;DHT22;10657;51.276;6.390;2023-04-03T16:45:04;14.60;87.00
20998;DHT22;10657;51.276;6.390;2023-04-03T16:47:32;14.60;87.40
20998;DHT22;10657;51.276;6.390;2023-04-03T16:49:59;14.90;90.30
20998;DHT22;10657;51.276;6.390;2023-04-03T16:52:26;15.10;88.00
20998;DHT22;10657;51.276;6.390;2023-04-03T16:54:53;15.00;89.10
20998;DHT22;10657;51.276;6.390;2023-04-03T16:57:22;14.90;86.70
20998;DHT22;10657;51.276;6.390;2023-04-03T16:59:51;15.00;86.60
20998;DHT22;10657;51.276;6.390;2023-04-03T17:02:19;14.90;90.30
20998;DHT22;10657;51.276;6.390;2023-04-03T17:04:46;14.60;88.00
20998;DHT22;10657;51.276;6.390;2023-04-03T17:07:14;14.50;87.50
20998;DHT22;10657;51.276;6.390;2023-04-03T17:09:41;14.60;86.10
20998;DHT22;10657;51.276;6.390;2023-04-03T17:12:08;14.70;90.90
20998;DHT22;10657;51.276;6.390;2023-04-03T17:14:35;14.30;87.90
20998;DHT22;10657;51.276;6.390;2023-04-03T17:17:02;14.30;89.60
20998;DHT22;10657;51.276;6.390;2023-04-03T17:19:30;14.40;90.10
20998;DHT22;10657;51.276;6.390;2023-04-03T17:21:57;14.10;86.30
20998;DHT22;10657;51.276;6.390;2023-04-03T17:24:24;14.30;90.60
20998;DHT22;10657;51.276;6.390;2023-04-03T17:26:51;14.10;90.30
20998;DHT22;10657;51.276;6.390;2023-04-03T17:29:17;14.10;91.30
20998;DHT22;10657;51.276;6.390;2023-04-03T17:31:44;13.90;89.50
20998;DHT22;10657;51.276;6.390;2023-04-03T17:34:11;13.80;89.40
20998;DHT22;10657;51.276;6.390;2023-04-03T17:36:38;13.20;90.80
20998;DHT22;10657;51.276;6.390;2023-04-03T17:39:06;13.10;88.60
20998;DHT22;10657;51.276;6.390;2023-04-03T17:41:33;12.70;90.30
20998;DHT22;10657;51.276;6.390;2023-04-03T17:44:00;12.90;90.10
20998;DHT22;10657;51.276;6.390;2023-04-03T17:46:26;12.80;92.10
20998;DHT22;10657;51.276;6.390;2023-04-03T17:48:53;12.70;91.20
20998;DHT22;10657;51.276;6.390;2023-04-03T17:51:21;12.40;91.40
20998;DHT22;10657;51.276;6.390;2023-04-03T17:53:48;12.30;93.60
20998;DHT22;10657;51.276;6.390;2023-04-03T17:56:18;12.40;90.50
20998;DHT22;10657;51.276;6.390;2023-04-03T17:58:45;12.30;91.40